Nakhon Si Thammarat, Thailand

10:06 AM ICT on July 26, 2014 (GMT +0700)
Nakhon Si Thammarat (VTSF) Elev 13 ft | 8.54 °N, 99.94 °E | Change Station

Current weather conditions updated 1 hour ago

Mostly Cloudy
Mostly Cloudy
82 °F
Feels Like 90 °F
N
2
Wind Variable Wind from Variable

Today is forecast to be nearly the same temperature as yesterday. Scattered thunderstorms possible.

Today
High -- | Low -- °F
--% Chance of Precip.
Yesterday
High -- | Low -- °F
Precip. -- in
6:10 AM 6:42 PM
Waning Crescent, 1% visible
Pressure 29.83 in
Visibility 6.2 miles
Clouds Few 1800 ft
Scattered Clouds 10000 ft
Mostly Cloudy 30000 ft
Heat Index 90 °F
Dew Point 75 °F
Humidity 79%
Rainfall 0.00 in
Snow Depth Not available.
UV 3 out of 12
Pollen Not available.
Air Quality Not available.
Flu Activity Not available.
METAR VTSF 260200Z VRB02KT 9999 FEW018 SCT100 BKN300 28/24 Q1010 A2985 INFO C / RWY 19

More Conditions Fewer Conditions

Pressure 29.83 in
Visibility 6.2 miles
Clouds Few 1800 ft
Scattered Clouds 10000 ft
Mostly Cloudy 30000 ft
Heat Index 90 °F
Dew Point 75 °F
Humidity 79%
Rainfall 0.00 in
Snow Depth Not available.
UV 3 out of 12
Pollen Not available.
Air Quality Not available.
Flu Activity Not available.
METAR VTSF 260200Z VRB02KT 9999 FEW018 SCT100 BKN300 28/24 Q1010 A2985 INFO C / RWY 19

More Conditions Fewer Conditions

10-Day Weather Forecast

Almanac

Astronomy

Jul. 26, 2014 Rise Set
Actual Time 6:10 AM ICT 6:42 PM ICT
Civil Twilight 5:48 AM ICT 7:04 PM ICT
Nautical Twilight 5:22 AM ICT 7:30 PM ICT
Astronomical Twilight 4:56 AM ICT 7:57 PM ICT
Moon 5:26 AM ICT 6:09 PM ICT
Length of Visible Light 13h 16m
Length of Day
12h 31m
Tomorrow will be 0m 19s shorter.
Waning Crescent, 1% of the Moon is Illuminated
Jul 25
Waning Crescent
Jul 26
New
Aug 3
First Quarter
Aug 10
Full
Aug 17
Last Quarter

Yesterday's Extremes

Country Highs Country Lows

Community

WunderPhotos

Upload Photos

1,737,492 photos uploaded!

Nearby

Snow Depth

Not available.

Earthquake Activity

City Distance Mag. Time & Date
No recent earthquake activity has been reported nearby.
Minimum magnitude displayed is 2.5.

Coastal Water Temperatures

Place Temperature
No Stations Reporting

Nearby Weather Stations

There are no personal weather stations in this area.